Time;durP1;ratioP1;P1;durP2;ratioP2;P2;SDS_P1;SDS_P2;PMS_P1;PMS_P2;Temp;Humidity;BMP_temperature;BMP_pressure;BME280_temperature;BME280_humidity;BME280_pressure;Samples;Min_cycle;Max_cycle;Signal;HPM_P1;HPM_P2
2023/02/24 00:00:50;;;;;;;;;;;;;;;;;;4975163;28;19910;-47
2023/02/24 00:03:16;;;;;;;;;;;;;;;;;;4974476;28;19965;-47
2023/02/24 00:05:43;;;;;;;;;;;;;;;;;;4973267;28;19918;-46
2023/02/24 00:08:09;;;;;;;;;;;;;;;;;;4973884;28;20054;-47
2023/02/24 00:10:36;;;;;;;;;;;;;;;;;;4973847;28;19958;-47
2023/02/24 00:13:02;;;;;;;;;;;;;;;;;;4973397;28;19968;-49
2023/02/24 00:15:28;;;;;;;;;;;;;;;;;;4973357;28;20338;-49
2023/02/24 00:17:54;;;;;;;;;;;;;;;;;;4972906;28;19936;-46
2023/02/24 00:20:20;;;;;;;;;;;;;;;;;;4973673;28;19910;-46
2023/02/24 00:22:45;;;;;;;;;;;;;;;;;;4974100;28;19910;-48
2023/02/24 00:25:11;;;;;;;;;;;;;;;;;;4973007;28;19925;-49
2023/02/24 00:27:37;;;;;;;;;;;;;;;;;;4973657;28;19914;-50
2023/02/24 00:30:04;;;;;;;;;;;;;;;;;;4971729;28;19997;-49
2023/02/24 00:32:30;;;;;;;;;;;;;;;;;;4972936;28;19914;-46
2023/02/24 00:34:55;;;;;;;;;;;;;;;;;;4972966;28;19945;-47
2023/02/24 00:37:22;;;;;;;;;;;;;;;;;;4973765;28;19918;-47
2023/02/24 00:39:48;;;;;;;;;;;;;;;;;;4973168;28;19910;-49
2023/02/24 00:42:14;;;;;;;;;;;;;;;;;;4979921;28;19910;-51
2023/02/24 00:44:40;;;;;;;;;;;;;;;;;;4973805;28;20358;-50
2023/02/24 00:47:06;;;;;;;;;;;;;;;;;;4973502;28;20041;-47
2023/02/24 00:49:32;;;;;;;;;;;;;;;;;;4972976;28;20382;-49
2023/02/24 00:51:58;;;;;;;;;;;;;;;;;;4973619;28;19914;-50
2023/02/24 00:54:27;;;;;;;;;;;;;;;;;;4972508;28;20303;-47
2023/02/24 00:56:52;;;;;;;;;;;;;;;;;;4973259;28;19909;-48
2023/02/24 00:59:19;;;;;;;;;;;;;;;;;;4970934;28;19932;-49
2023/02/24 01:01:45;;;;;;;;;;;;;;;;;;4973876;28;19921;-47
2023/02/24 01:04:11;;;;;;;;;;;;;;;;;;4967383;28;19915;-47
2023/02/24 01:06:37;;;;;;;;;;;;;;;;;;4972595;28;19910;-47
2023/02/24 01:09:07;;;;;;;;;;;;;;;;;;4972659;28;19909;-46
2023/02/24 01:12:16;;;;;;;;;;;;;;;;;;4972996;28;20404;-46
2023/02/24 01:14:21;;;;;;;;;;;;;;;;;;4968720;28;19926;-46
2023/02/24 01:16:49;;;;;;;;;;;;;;;;;;4973369;28;19910;-47
2023/02/24 01:19:15;;;;;;;;;;;;;;;;;;4970701;28;19946;-47
2023/02/24 01:21:40;;;;;;;;;;;;;;;;;;4973374;28;19941;-49
2023/02/24 01:24:06;;;;;;;;;;;;;;;;;;4971563;28;19914;-47
2023/02/24 01:26:32;;;;;;;;;;;;;;;;;;4967458;28;20379;-47
2023/02/24 01:28:58;;;;;;;;;;;;;;;;;;4972197;28;19949;-47
2023/02/24 01:31:24;;;;;;;;;;;;;;;;;;4971202;28;20322;-50
2023/02/24 01:33:50;;;;;;;;;;;;;;;;;;4971910;28;20386;-46
2023/02/24 01:36:16;;;;;;;;;;;;;;;;;;4972657;28;19910;-48
2023/02/24 01:38:42;;;;;;;;;;;;;;;;;;4972628;28;19910;-47
2023/02/24 01:41:08;;;;;;;;;;;;;;;;;;4970292;28;20379;-48
2023/02/24 01:43:34;;;;;;;;;;;;;;;;;;4972408;28;19938;-48
2023/02/24 01:46:00;;;;;;;;;;;;;;;;;;4971475;28;19914;-48
2023/02/24 01:48:26;;;;;;;;;;;;;;;;;;4972778;28;19977;-47
2023/02/24 01:50:52;;;;;;;;;;;;;;;;;;4968508;28;19973;-48
2023/02/24 01:53:18;;;;;;;;;;;;;;;;;;4966675;28;19918;-48
2023/02/24 01:55:45;;;;;;;;;;;;;;;;;;4969985;28;19917;-46
2023/02/24 01:58:11;;;;;;;;;;;;;;;;;;4972432;28;19918;-46
2023/02/24 02:00:37;;;;;;;;;;;;;;;;;;4971255;28;19910;-46
2023/02/24 02:03:03;;;;;;;;;;;;;;;;;;4970992;28;19972;-46
2023/02/24 02:05:29;;;;;;;;;;;;;;;;;;4971087;28;19910;-46
2023/02/24 02:07:56;;;;;;;;;;;;;;;;;;4971983;28;19918;-46
2023/02/24 02:10:22;;;;;;;;;;;;;;;;;;4972406;28;20294;-46
2023/02/24 02:12:50;;;;;;;;;;;;;;;;;;4971151;28;19965;-46
2023/02/24 02:15:17;;;;;;;;;;;;;;;;;;4966423;28;20000;-46
2023/02/24 02:17:43;;;;;;;;;;;;;;;;;;4972800;28;19975;-46
2023/02/24 02:20:14;;;;;;;;;;;;;;;;;;4971241;28;19937;-47
2023/02/24 02:22:40;;;;;;;;;;;;;;;;;;4972400;28;19917;-47
2023/02/24 02:25:06;;;;;;;;;;;;;;;;;;4970404;28;19961;-46
2023/02/24 02:27:32;;;;;;;;;;;;;;;;;;4972750;28;20271;-46
2023/02/24 02:29:58;;;;;;;;;;;;;;;;;;4971327;28;19940;-46
2023/02/24 02:32:23;;;;;;;;;;;;;;;;;;4974062;28;19913;-46
2023/02/24 02:34:49;;;;;;;;;;;;;;;;;;4972105;28;19910;-45
2023/02/24 02:37:15;;;;;;;;;;;;;;;;;;4970734;28;19953;-48
2023/02/24 02:39:42;;;;;;;;;;;;;;;;;;4972642;28;19914;-47
2023/02/24 02:42:13;;;;;;;;;;;;;;;;;;4971882;28;19906;-46
2023/02/24 02:44:38;;;;;;;;;;;;;;;;;;4971929;28;20473;-46
2023/02/24 02:47:04;;;;;;;;;;;;;;;;;;4969250;28;19910;-46
2023/02/24 02:49:31;;;;;;;;;;;;;;;;;;4977215;28;20319;-47
2023/02/24 02:51:57;;;;;;;;;;;;;;;;;;4973669;28;20009;-46
2023/02/24 02:54:22;;;;;;;;;;;;;;;;;;4975969;28;20016;-46
2023/02/24 02:56:49;;;;;;;;;;;;;;;;;;4975570;28;19906;-46
2023/02/24 02:59:15;;;;;;;;;;;;;;;;;;4977253;28;19910;-48
2023/02/24 03:01:42;;;;;;;;;;;;;;;;;;4977269;28;20432;-47
2023/02/24 03:04:08;;;;;;;;;;;;;;;;;;4973517;28;20403;-49
2023/02/24 03:06:34;;;;;;;;;;;;;;;;;;4977177;28;19906;-49
2023/02/24 03:09:00;;;;;;;;;;;;;;;;;;4974730;28;20338;-51
2023/02/24 03:11:26;;;;;;;;;;;;;;;;;;4976343;28;19910;-47
2023/02/24 03:13:52;;;;;;;;;;;;;;;;;;4974526;28;19926;-46
2023/02/24 03:16:18;;;;;;;;;;;;;;;;;;4975813;28;19937;-49
2023/02/24 03:18:44;;;;;;;;;;;;;;;;;;4974386;28;19910;-48
2023/02/24 03:21:10;;;;;;;;;;;;;;;;;;4971369;28;19906;-47
2023/02/24 03:23:36;;;;;;;;;;;;;;;;;;4975107;28;19976;-46
2023/02/24 03:26:04;;;;;;;;;;;;;;;;;;4971739;28;19910;-51
2023/02/24 03:28:32;;;;;;;;;;;;;;;;;;4971770;28;20032;-48
2023/02/24 03:30:58;;;;;;;;;;;;;;;;;;4973506;28;20325;-47
2023/02/24 03:33:25;;;;;;;;;;;;;;;;;;4974966;28;20005;-46
2023/02/24 03:35:51;;;;;;;;;;;;;;;;;;4974158;28;20127;-48
2023/02/24 03:38:17;;;;;;;;;;;;;;;;;;4974976;28;20391;-49
2023/02/24 03:40:43;;;;;;;;;;;;;;;;;;4974732;28;19997;-47
2023/02/24 03:43:10;;;;;;;;;;;;;;;;;;4973383;28;19997;-48
2023/02/24 03:45:36;;;;;;;;;;;;;;;;;;4974581;28;19957;-47
2023/02/24 03:48:02;;;;;;;;;;;;;;;;;;4973812;28;20260;-48
2023/02/24 03:50:31;;;;;;;;;;;;;;;;;;4973971;28;20390;-48
2023/02/24 03:52:56;;;;;;;;;;;;;;;;;;4972826;28;20327;-47
2023/02/24 03:55:22;;;;;;;;;;;;;;;;;;4973652;28;19917;-47
2023/02/24 03:57:54;;;;;;;;;;;;;;;;;;4973933;28;20290;-46
2023/02/24 04:00:33;;;;;;;;;;;;;;;;;;4974528;28;19952;-46
2023/02/24 04:02:59;;;;;;;;;;;;;;;;;;4971001;28;20373;-47
2023/02/24 04:05:26;;;;;;;;;;;;;;;;;;4974321;28;20004;-49
2023/02/24 04:07:52;;;;;;;;;;;;;;;;;;4973761;28;19932;-49
2023/02/24 04:10:18;;;;;;;;;;;;;;;;;;4974143;28;19910;-47
2023/02/24 04:12:45;;;;;;;;;;;;;;;;;;4972890;28;19997;-49
2023/02/24 04:15:11;;;;;;;;;;;;;;;;;;4972449;28;19937;-46
2023/02/24 04:17:37;;;;;;;;;;;;;;;;;;4974186;28;19914;-46
2023/02/24 04:20:14;;;;;;;;;;;;;;;;;;4972911;28;19917;-48
2023/02/24 04:22:40;;;;;;;;;;;;;;;;;;4969252;28;19917;-50
2023/02/24 04:25:12;;;;;;;;;;;;;;;;;;4971703;28;19910;-47
2023/02/24 04:27:38;;;;;;;;;;;;;;;;;;4974521;28;19910;-47
2023/02/24 04:30:03;;;;;;;;;;;;;;;;;;4973112;28;19956;-49
2023/02/24 04:32:29;;;;;;;;;;;;;;;;;;4973292;28;19929;-47
2023/02/24 04:34:55;;;;;;;;;;;;;;;;;;4973094;28;19936;-48
2023/02/24 04:37:21;;;;;;;;;;;;;;;;;;4970612;28;19919;-49
2023/02/24 04:39:47;;;;;;;;;;;;;;;;;;4972639;28;19910;-48
2023/02/24 04:42:13;;;;;;;;;;;;;;;;;;4972891;28;19918;-49
2023/02/24 04:44:39;;;;;;;;;;;;;;;;;;4973199;28;19960;-47
2023/02/24 04:47:06;;;;;;;;;;;;;;;;;;4973646;28;19932;-47
2023/02/24 04:49:32;;;;;;;;;;;;;;;;;;4972778;28;19917;-50
2023/02/24 04:51:58;;;;;;;;;;;;;;;;;;4973213;28;19913;-47
2023/02/24 04:54:24;;;;;;;;;;;;;;;;;;4969590;28;20213;-47
2023/02/24 04:56:50;;;;;;;;;;;;;;;;;;4971378;28;19914;-46
2023/02/24 04:59:16;;;;;;;;;;;;;;;;;;4972942;28;19933;-46
2023/02/24 05:01:43;;;;;;;;;;;;;;;;;;4973080;28;20363;-47
2023/02/24 05:04:08;;;;;;;;;;;;;;;;;;4972204;28;19964;-47
2023/02/24 05:06:34;;;;;;;;;;;;;;;;;;4972711;28;19941;-47
2023/02/24 05:09:00;;;;;;;;;;;;;;;;;;4972125;28;20417;-47
2023/02/24 05:11:31;;;;;;;;;;;;;;;;;;4973686;28;19960;-50
2023/02/24 05:13:56;;;;;;;;;;;;;;;;;;4961833;28;19973;-47
2023/02/24 05:16:22;;;;;;;;;;;;;;;;;;4957618;28;20351;-47
2023/02/24 05:18:48;;;;;;;;;;;;;;;;;;4953750;28;19918;-46
2023/02/24 05:24:03;;;;;;;;;;;;;;;;;;4948234;28;19917;-47
2023/02/24 05:26:30;;;;;;;;;;;;;;;;;;4954712;28;20000;-49
2023/02/24 05:28:58;;;;;;;;;;;;;;;;;;4952314;28;19915;-49
2023/02/24 05:31:27;;;;;;;;;;;;;;;;;;4955065;28;20390;-47
2023/02/24 05:33:53;;;;;;;;;;;;;;;;;;4953585;28;20026;-46
2023/02/24 05:36:19;;;;;;;;;;;;;;;;;;4958825;28;20005;-47
2023/02/24 05:38:45;;;;;;;;;;;;;;;;;;4960999;28;19917;-48
2023/02/24 05:41:15;;;;;;;;;;;;;;;;;;4953372;28;19918;-48
2023/02/24 05:43:41;;;;;;;;;;;;;;;;;;4957743;28;19914;-46
2023/02/24 05:46:07;;;;;;;;;;;;;;;;;;4953567;28;19917;-48
2023/02/24 05:48:34;;;;;;;;;;;;;;;;;;4956632;28;20018;-47
2023/02/24 05:50:59;;;;;;;;;;;;;;;;;;4951918;28;19915;-50
2023/02/24 05:53:25;;;;;;;;;;;;;;;;;;4957817;28;19926;-46
2023/02/24 05:55:51;;;;;;;;;;;;;;;;;;4961414;28;20001;-49
2023/02/24 05:58:17;;;;;;;;;;;;;;;;;;4962798;28;19910;-48
2023/02/24 06:00:45;;;;;;;;;;;;;;;;;;4948818;28;19958;-49
2023/02/24 06:03:16;;;;;;;;;;;;;;;;;;4963212;28;20078;-47
2023/02/24 06:05:42;;;;;;;;;;;;;;;;;;4958699;28;19954;-46
2023/02/24 06:08:10;;;;;;;;;;;;;;;;;;4959781;28;19911;-48
2023/02/24 06:10:36;;;;;;;;;;;;;;;;;;4954666;28;19938;-48
2023/02/24 06:13:02;;;;;;;;;;;;;;;;;;4953847;28;19918;-49
2023/02/24 06:15:28;;;;;;;;;;;;;;;;;;4972430;28;20367;-48
2023/02/24 06:17:55;;;;;;;;;;;;;;;;;;4972083;28;19917;-46
2023/02/24 06:20:21;;;;;;;;;;;;;;;;;;4972496;28;20370;-47
2023/02/24 06:22:47;;;;;;;;;;;;;;;;;;4971912;28;19910;-47
2023/02/24 06:25:13;;;;;;;;;;;;;;;;;;4971595;28;19910;-48
2023/02/24 06:27:39;;;;;;;;;;;;;;;;;;4967184;28;19910;-49
2023/02/24 06:30:09;;;;;;;;;;;;;;;;;;4971235;28;19979;-49
2023/02/24 06:32:34;;;;;;;;;;;;;;;;;;4965316;28;19918;-47
2023/02/24 06:35:00;;;;;;;;;;;;;;;;;;4969143;28;19917;-51
2023/02/24 06:37:27;;;;;;;;;;;;;;;;;;4963867;28;19914;-47
2023/02/24 06:39:53;;;;;;;;;;;;;;;;;;4968461;28;19978;-48
2023/02/24 06:42:18;;;;;;;;;;;;;;;;;;4968277;28;19953;-47
2023/02/24 06:44:44;;;;;;;;;;;;;;;;;;4969521;28;19914;-51
2023/02/24 06:47:11;;;;;;;;;;;;;;;;;;4966944;28;19910;-46
2023/02/24 06:49:37;;;;;;;;;;;;;;;;;;4969133;28;19910;-48
2023/02/24 06:52:03;;;;;;;;;;;;;;;;;;4968111;28;19925;-49
2023/02/24 06:54:29;;;;;;;;;;;;;;;;;;4969548;28;20378;-47
2023/02/24 06:56:56;;;;;;;;;;;;;;;;;;4968292;28;20038;-48
2023/02/24 06:59:27;;;;;;;;;;;;;;;;;;4968727;28;19918;-47
2023/02/24 07:01:53;;;;;;;;;;;;;;;;;;4968005;28;20012;-48
2023/02/24 07:04:19;;;;;;;;;;;;;;;;;;4969407;28;19969;-47
2023/02/24 07:06:46;;;;;;;;;;;;;;;;;;4969439;28;20500;-47
2023/02/24 07:09:12;;;;;;;;;;;;;;;;;;4967703;28;19945;-46
2023/02/24 07:11:40;;;;;;;;;;;;;;;;;;4967796;28;19949;-47
2023/02/24 07:14:06;;;;;;;;;;;;;;;;;;4969115;28;19925;-49
2023/02/24 07:16:33;;;;;;;;;;;;;;;;;;4966690;28;19982;-47
2023/02/24 07:19:01;;;;;;;;;;;;;;;;;;4969686;28;20271;-48
2023/02/24 07:21:29;;;;;;;;;;;;;;;;;;4967217;28;19910;-46
2023/02/24 07:23:57;;;;;;;;;;;;;;;;;;4966560;28;20045;-47
2023/02/24 07:26:23;;;;;;;;;;;;;;;;;;4967708;28;19914;-48
2023/02/24 07:28:49;;;;;;;;;;;;;;;;;;4967578;28;19926;-46
2023/02/24 07:31:18;;;;;;;;;;;;;;;;;;4971078;28;20009;-47
2023/02/24 07:33:44;;;;;;;;;;;;;;;;;;4970842;28;20394;-47
2023/02/24 07:36:13;;;;;;;;;;;;;;;;;;4969250;28;19973;-47
2023/02/24 07:38:39;;;;;;;;;;;;;;;;;;4971950;28;19910;-45
2023/02/24 07:41:05;;;;;;;;;;;;;;;;;;4973462;28;19910;-47
2023/02/24 07:43:31;;;;;;;;;;;;;;;;;;4974932;28;19914;-46
2023/02/24 07:45:57;;;;;;;;;;;;;;;;;;4969995;28;19954;-46
2023/02/24 07:48:24;;;;;;;;;;;;;;;;;;4975739;28;19910;-46
2023/02/24 07:50:51;;;;;;;;;;;;;;;;;;4973589;28;19941;-46
2023/02/24 07:53:17;;;;;;;;;;;;;;;;;;4973577;28;20274;-49
2023/02/24 07:55:45;;;;;;;;;;;;;;;;;;4974101;28;20366;-47
2023/02/24 07:58:11;;;;;;;;;;;;;;;;;;4973936;28;19914;-47
2023/02/24 08:00:58;;;;;;;;;;;;;;;;;;4972835;28;19929;-47
2023/02/24 08:03:22;;;;;;;;;;;;;;;;;;4974034;28;19916;-49
2023/02/24 08:05:48;;;;;;;;;;;;;;;;;;4972444;28;19917;-48
2023/02/24 08:08:19;;;;;;;;;;;;;;;;;;4974974;28;20360;-50
2023/02/24 08:10:46;;;;;;;;;;;;;;;;;;4974077;28;19910;-50
2023/02/24 08:13:12;;;;;;;;;;;;;;;;;;4972550;28;19976;-46
2023/02/24 08:15:38;;;;;;;;;;;;;;;;;;4954405;28;20017;-48
2023/02/24 08:18:03;;;;;;;;;;;;;;;;;;4956907;28;20005;-48
2023/02/24 08:20:34;;;;;;;;;;;;;;;;;;4964044;28;19917;-48
2023/02/24 08:23:00;;;;;;;;;;;;;;;;;;4962063;28;19910;-46
2023/02/24 08:25:34;;;;;;;;;;;;;;;;;;4954778;28;19918;-47
2023/02/24 08:28:04;;;;;;;;;;;;;;;;;;4954088;28;19910;-47
2023/02/24 08:30:37;;;;;;;;;;;;;;;;;;4951658;28;20275;-49
2023/02/24 08:33:02;;;;;;;;;;;;;;;;;;4957979;28;19969;-47
2023/02/24 08:35:34;;;;;;;;;;;;;;;;;;4955337;28;19918;-48
2023/02/24 08:38:00;;;;;;;;;;;;;;;;;;4958927;28;19928;-48
2023/02/24 08:42:58;;;;;;;;;;;;;;;;;;4956436;28;19917;-47
2023/02/24 08:45:25;;;;;;;;;;;;;;;;;;4954319;28;19914;-50
2023/02/24 08:47:53;;;;;;;;;;;;;;;;;;4954383;28;19914;-46
2023/02/24 08:50:20;;;;;;;;;;;;;;;;;;4957716;28;20053;-48
2023/02/24 08:52:46;;;;;;;;;;;;;;;;;;4960788;28;19918;-46
2023/02/24 08:55:12;;;;;;;;;;;;;;;;;;4954514;28;19919;-48
2023/02/24 08:57:38;;;;;;;;;;;;;;;;;;4966583;28;20390;-49
2023/02/24 09:00:05;;;;;;;;;;;;;;;;;;4948142;28;19958;-47
2023/02/24 09:02:36;;;;;;;;;;;;;;;;;;4954671;28;19914;-48
2023/02/24 09:05:09;;;;;;;;;;;;;;;;;;4955831;28;19911;-46
2023/02/24 09:07:34;;;;;;;;;;;;;;;;;;4956929;28;19966;-49
2023/02/24 09:10:00;;;;;;;;;;;;;;;;;;4950713;28;19918;-45
2023/02/24 09:12:27;;;;;;;;;;;;;;;;;;4965114;28;19922;-46
2023/02/24 09:14:54;;;;;;;;;;;;;;;;;;4972130;28;19964;-47
2023/02/24 09:17:25;;;;;;;;;;;;;;;;;;4971776;28;19975;-47
2023/02/24 09:22:55;;;;;;;;;;;;;;;;;;4968611;28;19963;-48
2023/02/24 09:25:22;;;;;;;;;;;;;;;;;;4964788;28;19914;-48
2023/02/24 09:27:51;;;;;;;;;;;;;;;;;;4965911;28;19910;-46
2023/02/24 09:30:35;;;;;;;;;;;;;;;;;;4973254;28;20001;-48
2023/02/24 09:33:01;;;;;;;;;;;;;;;;;;4972568;28;19922;-47
2023/02/24 09:35:29;;;;;;;;;;;;;;;;;;4971946;28;19972;-47
2023/02/24 09:37:55;;;;;;;;;;;;;;;;;;4972737;28;19914;-47
2023/02/24 09:42:47;;;;;;;;;;;;;;;;;;4973052;28;20414;-49
2023/02/24 09:45:13;;;;;;;;;;;;;;;;;;4969598;28;19917;-47
2023/02/24 09:47:39;;;;;;;;;;;;;;;;;;4967685;28;19910;-46
2023/02/24 09:50:05;;;;;;;;;;;;;;;;;;4971602;28;20330;-52
2023/02/24 09:52:39;;;;;;;;;;;;;;;;;;4969450;28;20439;-49
2023/02/24 09:55:23;;;;;;;;;;;;;;;;;;4971327;28;19914;-50
2023/02/24 10:00:48;;;;;;;;;;;;;;;;;;4969603;28;19910;-48
2023/02/24 10:03:39;;;;;;;;;;;;;;;;;;4968079;28;19910;-52
2023/02/24 10:06:10;;;;;;;;;;;;;;;;;;4969242;28;20278;-50
2023/02/24 10:08:37;;;;;;;;;;;;;;;;;;4972607;28;19910;-48
2023/02/24 10:11:05;;;;;;;;;;;;;;;;;;4970885;28;19917;-53
2023/02/24 10:13:32;;;;;;;;;;;;;;;;;;4971847;28;19929;-51
2023/02/24 10:15:57;;;;;;;;;;;;;;;;;;4971411;28;19917;-51
2023/02/24 10:18:26;;;;;;;;;;;;;;;;;;4972088;28;19910;-49
2023/02/24 10:20:52;;;;;;;;;;;;;;;;;;4967861;28;20268;-49
2023/02/24 10:23:28;;;;;;;;;;;;;;;;;;4971674;28;19910;-49
2023/02/24 10:25:54;;;;;;;;;;;;;;;;;;4971398;28;20271;-49
2023/02/24 10:28:21;;;;;;;;;;;;;;;;;;4972199;28;19910;-48
2023/02/24 10:30:47;;;;;;;;;;;;;;;;;;4970716;28;19933;-49
2023/02/24 10:33:13;;;;;;;;;;;;;;;;;;4971230;28;19914;-49
2023/02/24 10:35:39;;;;;;;;;;;;;;;;;;4970353;28;19961;-51
2023/02/24 10:38:05;;;;;;;;;;;;;;;;;;4971638;28;20016;-50
2023/02/24 10:40:46;;;;;;;;;;;;;;;;;;4971511;28;19918;-46
2023/02/24 10:43:16;;;;;;;;;;;;;;;;;;4970454;28;20408;-51
2023/02/24 10:45:43;;;;;;;;;;;;;;;;;;4971514;28;19916;-49
2023/02/24 10:48:09;;;;;;;;;;;;;;;;;;4973514;28;20189;-47
2023/02/24 10:50:42;;;;;;;;;;;;;;;;;;4971666;28;20002;-47
2023/02/24 10:58:14;;;;;;;;;;;;;;;;;;4964834;28;19914;-47
2023/02/24 11:03:35;;;;;;;;;;;;;;;;;;4976678;28;19925;-47
2023/02/24 11:08:35;;;;;;;;;;;;;;;;;;4972354;28;20335;-47
2023/02/24 11:11:05;;;;;;;;;;;;;;;;;;4971336;28;19917;-47
2023/02/24 11:19:01;;;;;;;;;;;;;;;;;;4959798;28;20345;-48
2023/02/24 11:21:27;;;;;;;;;;;;;;;;;;4956737;28;20000;-50
2023/02/24 11:23:52;;;;;;;;;;;;;;;;;;4958580;28;19910;-46
2023/02/24 11:26:18;;;;;;;;;;;;;;;;;;4958081;28;19914;-50
2023/02/24 11:28:46;;;;;;;;;;;;;;;;;;4960437;28;19910;-50
2023/02/24 11:31:12;;;;;;;;;;;;;;;;;;4953686;29;19914;-47
2023/02/24 11:33:41;;;;;;;;;;;;;;;;;;4957866;28;19942;-49
2023/02/24 11:36:08;;;;;;;;;;;;;;;;;;4954579;28;19910;-48
2023/02/24 11:38:34;;;;;;;;;;;;;;;;;;4965914;28;19910;-47
2023/02/24 11:41:01;;;;;;;;;;;;;;;;;;4949589;28;20378;-47
2023/02/24 11:43:27;;;;;;;;;;;;;;;;;;4959765;28;20351;-47
2023/02/24 11:45:53;;;;;;;;;;;;;;;;;;4953228;28;19969;-49
2023/02/24 11:48:19;;;;;;;;;;;;;;;;;;4965430;28;19910;-50
2023/02/24 11:50:45;;;;;;;;;;;;;;;;;;4964696;28;20121;-45
2023/02/24 11:53:11;;;;;;;;;;;;;;;;;;4968246;28;20045;-49
2023/02/24 11:55:37;;;;;;;;;;;;;;;;;;4966149;28;22427;-48
2023/02/24 11:58:03;;;;;;;;;;;;;;;;;;4965735;28;19918;-47
2023/02/24 12:00:29;;;;;;;;;;;;;;;;;;4968412;28;20457;-48
2023/02/24 12:02:56;;;;;;;;;;;;;;;;;;4970432;28;19910;-46
2023/02/24 12:05:22;;;;;;;;;;;;;;;;;;4966352;28;19945;-46
2023/02/24 12:07:49;;;;;;;;;;;;;;;;;;4971116;28;19914;-45
2023/02/24 12:10:15;;;;;;;;;;;;;;;;;;4965135;28;19957;-45
2023/02/24 12:12:41;;;;;;;;;;;;;;;;;;4970857;28;19926;-44
2023/02/24 12:15:07;;;;;;;;;;;;;;;;;;4968772;28;19910;-46
2023/02/24 12:17:33;;;;;;;;;;;;;;;;;;4968318;28;19945;-42
2023/02/24 12:19:59;;;;;;;;;;;;;;;;;;4975615;28;19914;-43
2023/02/24 12:22:25;;;;;;;;;;;;;;;;;;4982605;28;19909;-43
2023/02/24 12:24:51;;;;;;;;;;;;;;;;;;4981563;28;19913;-43
2023/02/24 12:27:17;;;;;;;;;;;;;;;;;;4981789;28;19918;-43
2023/02/24 12:29:43;;;;;;;;;;;;;;;;;;4978265;28;19917;-43
2023/02/24 12:32:10;;;;;;;;;;;;;;;;;;4979797;28;19914;-44
2023/02/24 12:34:35;;;;;;;;;;;;;;;;;;4979027;28;20674;-42
2023/02/24 12:37:06;;;;;;;;;;;;;;;;;;4979255;28;19910;-41
2023/02/24 12:39:32;;;;;;;;;;;;;;;;;;4978647;28;19914;-44
2023/02/24 12:41:58;;;;;;;;;;;;;;;;;;4979343;28;20310;-44
2023/02/24 12:44:24;;;;;;;;;;;;;;;;;;4983022;28;20335;-43
2023/02/24 12:46:49;;;;;;;;;;;;;;;;;;4978109;28;19964;-44
2023/02/24 12:49:16;;;;;;;;;;;;;;;;;;4981580;28;19909;-45
2023/02/24 12:51:42;;;;;;;;;;;;;;;;;;4978706;28;19910;-45
2023/02/24 12:54:08;;;;;;;;;;;;;;;;;;4978024;28;19968;-47
2023/02/24 12:56:34;;;;;;;;;;;;;;;;;;4977085;28;20279;-45
2023/02/24 12:59:01;;;;;;;;;;;;;;;;;;4979755;28;20321;-45
2023/02/24 13:01:26;;;;;;;;;;;;;;;;;;4980502;28;20304;-45
2023/02/24 13:03:52;;;;;;;;;;;;;;;;;;4976457;28;19916;-45
2023/02/24 13:06:18;;;;;;;;;;;;;;;;;;4980920;28;20056;-48
2023/02/24 13:08:44;;;;;;;;;;;;;;;;;;4979486;28;19956;-48
2023/02/24 13:11:11;;;;;;;;;;;;;;;;;;4978125;28;20533;-44
2023/02/24 13:13:37;;;;;;;;;;;;;;;;;;4970669;28;19917;-46
2023/02/24 13:16:03;;;;;;;;;;;;;;;;;;4971909;28;20443;-47
2023/02/24 13:18:28;;;;;;;;;;;;;;;;;;4973948;28;20259;-45
2023/02/24 13:20:54;;;;;;;;;;;;;;;;;;4971461;28;20008;-46
2023/02/24 13:23:20;;;;;;;;;;;;;;;;;;4973341;28;20294;-45
2023/02/24 13:25:46;;;;;;;;;;;;;;;;;;4972518;28;19971;-48
2023/02/24 13:28:12;;;;;;;;;;;;;;;;;;4971547;28;19957;-45
2023/02/24 13:30:38;;;;;;;;;;;;;;;;;;4972640;28;19996;-45
2023/02/24 13:33:04;;;;;;;;;;;;;;;;;;4972706;28;19922;-44
2023/02/24 13:35:30;;;;;;;;;;;;;;;;;;4971792;28;20000;-45
2023/02/24 13:37:56;;;;;;;;;;;;;;;;;;4972221;28;20446;-45
2023/02/24 13:40:21;;;;;;;;;;;;;;;;;;4971721;28;19964;-46
2023/02/24 13:42:47;;;;;;;;;;;;;;;;;;4972634;28;19972;-46
2023/02/24 13:45:13;;;;;;;;;;;;;;;;;;4972226;28;20001;-46
2023/02/24 13:47:39;;;;;;;;;;;;;;;;;;4973097;28;19968;-49
2023/02/24 13:50:05;;;;;;;;;;;;;;;;;;4965178;28;19931;-44
2023/02/24 13:52:31;;;;;;;;;;;;;;;;;;4977256;28;19928;-43
2023/02/24 13:54:57;;;;;;;;;;;;;;;;;;4972809;28;20544;-45
2023/02/24 13:57:23;;;;;;;;;;;;;;;;;;4973430;28;19910;-43
2023/02/24 13:59:49;;;;;;;;;;;;;;;;;;4977578;28;19909;-44
2023/02/24 14:02:15;;;;;;;;;;;;;;;;;;4982163;28;20286;-44
2023/02/24 14:04:40;;;;;;;;;;;;;;;;;;4981025;28;20363;-45
2023/02/24 14:07:06;;;;;;;;;;;;;;;;;;4977176;28;20413;-44
2023/02/24 14:09:32;;;;;;;;;;;;;;;;;;4982889;28;19910;-44
2023/02/24 14:11:58;;;;;;;;;;;;;;;;;;4978636;28;19941;-44
2023/02/24 14:14:24;;;;;;;;;;;;;;;;;;4976184;28;19918;-43
2023/02/24 14:16:50;;;;;;;;;;;;;;;;;;4973923;28;19914;-44
2023/02/24 14:19:16;;;;;;;;;;;;;;;;;;4970735;28;20045;-45
2023/02/24 14:21:42;;;;;;;;;;;;;;;;;;4973270;28;19942;-44
2023/02/24 14:24:07;;;;;;;;;;;;;;;;;;4978693;28;20067;-43
2023/02/24 14:26:33;;;;;;;;;;;;;;;;;;4979709;28;19906;-43
2023/02/24 14:28:59;;;;;;;;;;;;;;;;;;4980220;28;19906;-45
2023/02/24 14:31:25;;;;;;;;;;;;;;;;;;4979121;28;19942;-44
2023/02/24 14:33:51;;;;;;;;;;;;;;;;;;4980305;28;19925;-44
2023/02/24 14:36:17;;;;;;;;;;;;;;;;;;4975524;28;19921;-44
2023/02/24 14:38:43;;;;;;;;;;;;;;;;;;4971711;28;19910;-45
2023/02/24 14:41:09;;;;;;;;;;;;;;;;;;4971016;28;19906;-45
2023/02/24 14:43:35;;;;;;;;;;;;;;;;;;4972736;28;19945;-46
2023/02/24 14:46:00;;;;;;;;;;;;;;;;;;4971119;28;19910;-44
2023/02/24 14:48:26;;;;;;;;;;;;;;;;;;4974871;28;20013;-44
2023/02/24 14:50:52;;;;;;;;;;;;;;;;;;4974551;28;20359;-45
2023/02/24 14:53:18;;;;;;;;;;;;;;;;;;4975347;28;19925;-44
2023/02/24 14:55:44;;;;;;;;;;;;;;;;;;4975145;28;19964;-46
2023/02/24 14:58:10;;;;;;;;;;;;;;;;;;4974852;28;19906;-45
2023/02/24 15:00:36;;;;;;;;;;;;;;;;;;4974727;28;20294;-46
2023/02/24 15:03:02;;;;;;;;;;;;;;;;;;4975290;28;19910;-44
2023/02/24 15:05:28;;;;;;;;;;;;;;;;;;4975527;28;19932;-44
2023/02/24 15:07:53;;;;;;;;;;;;;;;;;;4975235;28;19910;-45
2023/02/24 15:10:20;;;;;;;;;;;;;;;;;;4975551;28;19949;-44
2023/02/24 15:12:46;;;;;;;;;;;;;;;;;;4974375;28;19973;-44
2023/02/24 15:15:11;;;;;;;;;;;;;;;;;;4955758;28;19968;-44
2023/02/24 15:17:37;;;;;;;;;;;;;;;;;;4960514;28;20009;-44
2023/02/24 15:20:07;;;;;;;;;;;;;;;;;;4959599;28;19911;-44
2023/02/24 15:22:38;;;;;;;;;;;;;;;;;;4969031;28;20271;-44
2023/02/24 15:25:03;;;;;;;;;;;;;;;;;;4956258;28;19933;-44
2023/02/24 15:27:29;;;;;;;;;;;;;;;;;;4964389;28;19910;-44
2023/02/24 15:29:55;;;;;;;;;;;;;;;;;;4959705;28;19918;-45
2023/02/24 15:32:21;;;;;;;;;;;;;;;;;;4963025;28;19962;-45
2023/02/24 15:34:47;;;;;;;;;;;;;;;;;;4960154;28;20359;-48
2023/02/24 15:37:13;;;;;;;;;;;;;;;;;;4961324;28;19914;-45
2023/02/24 15:39:39;;;;;;;;;;;;;;;;;;4969082;28;19941;-43
2023/02/24 15:42:05;;;;;;;;;;;;;;;;;;4966804;28;19934;-44
2023/02/24 15:44:31;;;;;;;;;;;;;;;;;;4966302;28;19914;-45
2023/02/24 15:46:57;;;;;;;;;;;;;;;;;;4967489;28;19921;-44
2023/02/24 15:49:23;;;;;;;;;;;;;;;;;;4959607;28;20379;-43
2023/02/24 15:51:49;;;;;;;;;;;;;;;;;;4957529;28;19965;-44
2023/02/24 15:54:15;;;;;;;;;;;;;;;;;;4958878;28;19918;-44
2023/02/24 15:56:40;;;;;;;;;;;;;;;;;;4960206;28;20379;-44
2023/02/24 15:59:06;;;;;;;;;;;;;;;;;;4946818;28;19917;-44
2023/02/24 16:01:32;;;;;;;;;;;;;;;;;;4958338;28;20427;-45
2023/02/24 16:03:58;;;;;;;;;;;;;;;;;;4962370;28;20001;-44
2023/02/24 16:06:24;;;;;;;;;;;;;;;;;;4954905;28;19981;-44
2023/02/24 16:08:50;;;;;;;;;;;;;;;;;;4957853;28;19911;-43
2023/02/24 16:11:16;;;;;;;;;;;;;;;;;;4953799;28;19911;-44
2023/02/24 16:13:42;;;;;;;;;;;;;;;;;;4953314;28;20268;-44
2023/02/24 16:16:08;;;;;;;;;;;;;;;;;;4951134;29;19915;-47
2023/02/24 16:18:34;;;;;;;;;;;;;;;;;;4950922;29;20488;-44
2023/02/24 16:21:00;;;;;;;;;;;;;;;;;;4954268;29;19910;-44
2023/02/24 16:23:26;;;;;;;;;;;;;;;;;;4955013;29;19954;-43
2023/02/24 16:25:52;;;;;;;;;;;;;;;;;;4956056;28;19938;-43
2023/02/24 16:28:18;;;;;;;;;;;;;;;;;;4954268;29;19911;-43
2023/02/24 16:30:44;;;;;;;;;;;;;;;;;;4952158;29;19917;-43
2023/02/24 16:33:10;;;;;;;;;;;;;;;;;;4953529;29;20001;-43
2023/02/24 16:35:37;;;;;;;;;;;;;;;;;;4954872;29;19979;-44
2023/02/24 16:38:03;;;;;;;;;;;;;;;;;;4954139;29;19910;-45
2023/02/24 16:40:29;;;;;;;;;;;;;;;;;;4946989;29;20331;-43
2023/02/24 16:42:55;;;;;;;;;;;;;;;;;;4953450;29;20316;-43
2023/02/24 16:45:21;;;;;;;;;;;;;;;;;;4954907;29;19910;-46
2023/02/24 16:47:47;;;;;;;;;;;;;;;;;;4954808;29;19973;-45
2023/02/24 16:50:13;;;;;;;;;;;;;;;;;;4953856;29;19915;-44
2023/02/24 16:52:39;;;;;;;;;;;;;;;;;;4954655;29;20021;-43
2023/02/24 16:55:05;;;;;;;;;;;;;;;;;;4952743;29;19938;-43
2023/02/24 16:57:31;;;;;;;;;;;;;;;;;;4954401;29;19921;-44
2023/02/24 16:59:56;;;;;;;;;;;;;;;;;;4958366;28;20000;-46
2023/02/24 17:02:22;;;;;;;;;;;;;;;;;;4954631;29;20322;-43
2023/02/24 17:04:48;;;;;;;;;;;;;;;;;;4953253;29;19920;-43
2023/02/24 17:07:15;;;;;;;;;;;;;;;;;;4953200;29;19911;-44
2023/02/24 17:09:40;;;;;;;;;;;;;;;;;;4953806;28;19921;-43
2023/02/24 17:12:07;;;;;;;;;;;;;;;;;;4953626;28;19910;-45